createdAt,value
2023-03-17T00:01:51.121Z,5.60
2023-03-17T00:04:19.484Z,5.60
2023-03-17T00:06:48.866Z,5.60
2023-03-17T00:09:17.751Z,5.60
2023-03-17T00:11:47.641Z,5.60
2023-03-17T00:14:14.594Z,5.60
2023-03-17T00:16:43.954Z,5.50
2023-03-17T00:19:20.006Z,5.50
2023-03-17T00:21:47.060Z,5.50
2023-03-17T00:24:15.229Z,5.70
2023-03-17T00:26:43.194Z,5.50
2023-03-17T00:29:13.198Z,5.50
2023-03-17T00:31:40.139Z,5.50
2023-03-17T00:34:11.444Z,5.50
2023-03-17T00:36:38.567Z,5.50
2023-03-17T00:39:17.372Z,5.50
2023-03-17T00:44:12.909Z,5.40
2023-03-17T00:46:42.812Z,5.50
2023-03-17T00:49:22.065Z,5.40
2023-03-17T00:51:51.991Z,5.40
2023-03-17T00:54:26.973Z,5.40
2023-03-17T00:56:53.714Z,5.40
2023-03-17T00:59:30.546Z,5.40
2023-03-17T01:01:57.563Z,5.40
2023-03-17T01:04:29.001Z,5.50
2023-03-17T01:06:55.715Z,5.40
2023-03-17T01:09:26.407Z,5.40
2023-03-17T01:11:55.910Z,5.80
2023-03-17T01:14:24.664Z,5.30
2023-03-17T01:16:53.019Z,5.30
2023-03-17T01:19:22.309Z,5.40
2023-03-17T01:21:48.974Z,5.30
2023-03-17T01:24:20.166Z,5.30
2023-03-17T01:26:46.916Z,5.30
2023-03-17T01:29:14.181Z,5.30
2023-03-17T01:31:41.162Z,5.30
2023-03-17T01:34:07.889Z,5.30
2023-03-17T01:36:35.616Z,5.30
2023-03-17T01:39:03.345Z,5.30
2023-03-17T01:41:34.616Z,5.30
2023-03-17T01:44:01.268Z,5.40
2023-03-17T01:46:34.021Z,5.30
2023-03-17T01:49:29.282Z,5.30
2023-03-17T01:52:06.509Z,5.30
2023-03-17T01:54:35.548Z,5.30
2023-03-17T01:57:15.090Z,5.30
2023-03-17T01:59:53.406Z,5.30
2023-03-17T02:02:30.874Z,5.30
2023-03-17T02:05:00.600Z,5.30
2023-03-17T02:07:28.113Z,5.20
2023-03-17T02:09:57.036Z,5.20
2023-03-17T02:12:25.130Z,5.20
2023-03-17T02:14:52.704Z,5.20
2023-03-17T02:17:22.068Z,5.10
2023-03-17T02:19:51.932Z,5.10
2023-03-17T02:22:21.873Z,5.20
2023-03-17T02:24:56.527Z,5.10
2023-03-17T02:27:31.189Z,5.10
2023-03-17T02:29:58.168Z,5.10
2023-03-17T02:32:27.226Z,5.10
2023-03-17T02:34:53.914Z,5.10
2023-03-17T02:37:23.608Z,5.10
2023-03-17T02:39:53.725Z,5.10
2023-03-17T02:42:20.960Z,5.10
2023-03-17T02:44:52.039Z,5.10
2023-03-17T02:47:19.100Z,5.00
2023-03-17T02:49:45.878Z,4.90
2023-03-17T02:52:13.151Z,5.00
2023-03-17T02:54:42.716Z,6.10
2023-03-17T02:57:12.063Z,5.00
2023-03-17T02:59:41.529Z,5.00
2023-03-17T03:02:08.528Z,5.20
2023-03-17T03:04:39.978Z,5.00
2023-03-17T03:07:06.726Z,5.00
2023-03-17T03:09:35.901Z,5.00
2023-03-17T03:12:03.303Z,5.00
2023-03-17T03:14:32.433Z,5.00
2023-03-17T03:16:59.584Z,4.90
2023-03-17T03:19:26.347Z,4.90
2023-03-17T03:21:52.983Z,4.90
2023-03-17T03:24:19.638Z,4.90
2023-03-17T03:26:48.873Z,4.90
2023-03-17T03:29:18.577Z,5.00
2023-03-17T03:31:45.410Z,4.90
2023-03-17T03:34:14.735Z,4.80
2023-03-17T03:36:41.443Z,4.80
2023-03-17T03:39:12.490Z,4.80
2023-03-17T03:41:41.236Z,4.70
2023-03-17T03:44:07.903Z,4.70
2023-03-17T03:46:34.586Z,4.70
2023-03-17T03:49:01.296Z,4.90
2023-03-17T03:51:27.942Z,4.60
2023-03-17T03:53:56.863Z,4.60
2023-03-17T03:56:23.568Z,4.70
2023-03-17T03:58:51.221Z,4.50
2023-03-17T04:01:18.084Z,4.40
2023-03-17T04:03:47.255Z,4.50
2023-03-17T04:06:14.289Z,4.50
2023-03-17T04:08:43.342Z,4.50
2023-03-17T04:11:10.023Z,4.50
2023-03-17T04:13:39.174Z,4.40
2023-03-17T04:16:06.231Z,4.40
2023-03-17T04:18:35.639Z,4.40
2023-03-17T04:21:04.626Z,4.30
2023-03-17T04:23:34.084Z,4.30
2023-03-17T04:26:00.912Z,4.30
2023-03-17T04:28:27.654Z,4.20
2023-03-17T04:30:56.771Z,4.20
2023-03-17T04:33:23.591Z,4.20
2023-03-17T04:35:50.272Z,4.20
2023-03-17T04:38:16.997Z,4.20
2023-03-17T04:40:46.220Z,4.10
2023-03-17T04:43:15.530Z,4.10
2023-03-17T04:45:42.407Z,4.10
2023-03-17T04:48:09.074Z,4.10
2023-03-17T04:50:35.826Z,3.90
2023-03-17T04:53:04.939Z,4.10
2023-03-17T04:55:31.610Z,4.10
2023-03-17T04:58:00.666Z,4.00
2023-03-17T05:00:33.685Z,4.00
2023-03-17T05:03:00.348Z,3.90
2023-03-17T05:05:29.418Z,3.90
2023-03-17T05:07:56.091Z,3.90
2023-03-17T05:10:22.738Z,3.90
2023-03-17T05:12:51.762Z,3.80
2023-03-17T05:15:21.590Z,3.80
2023-03-17T05:17:48.224Z,3.80
2023-03-17T05:20:15.569Z,3.80
2023-03-17T05:22:42.306Z,3.80
2023-03-17T05:25:11.583Z,3.80
2023-03-17T05:27:38.275Z,3.80
2023-03-17T05:30:08.290Z,3.70
2023-03-17T05:32:40.284Z,3.70
2023-03-17T05:35:07.528Z,3.70
2023-03-17T05:37:34.217Z,3.80
2023-03-17T05:40:01.039Z,3.70
2023-03-17T05:44:55.105Z,3.50
2023-03-17T05:47:23.930Z,3.60
2023-03-17T05:49:50.784Z,3.60
2023-03-17T05:52:22.096Z,3.70
2023-03-17T05:54:49.101Z,3.60
2023-03-17T05:57:16.504Z,3.70
2023-03-17T05:59:43.154Z,3.70
2023-03-17T06:02:12.931Z,3.70
2023-03-17T06:04:44.741Z,3.70
2023-03-17T06:07:12.058Z,3.70
2023-03-17T06:12:06.794Z,3.70
2023-03-17T06:14:36.166Z,3.70
2023-03-17T06:17:02.904Z,3.70
2023-03-17T06:19:29.668Z,3.80
2023-03-17T06:21:59.726Z,3.70
2023-03-17T06:24:28.780Z,3.80
2023-03-17T06:26:55.647Z,3.80
2023-03-17T06:29:22.683Z,3.80
2023-03-17T06:31:51.152Z,3.80
2023-03-17T06:34:19.058Z,3.90
2023-03-17T06:36:45.706Z,5.20
2023-03-17T06:39:13.142Z,4.00
2023-03-17T06:41:40.053Z,4.10
2023-03-17T06:44:07.253Z,4.20
2023-03-17T06:46:34.744Z,4.20
2023-03-17T06:51:32.343Z,4.40
2023-03-17T06:53:59.027Z,4.40
2023-03-17T06:56:30.034Z,4.50
2023-03-17T06:58:57.552Z,4.60
2023-03-17T07:01:27.378Z,4.70
2023-03-17T07:03:56.471Z,4.80
2023-03-17T07:06:26.320Z,5.60
2023-03-17T07:08:56.619Z,4.90
2023-03-17T07:11:23.766Z,5.70
2023-03-17T07:13:56.316Z,5.10
2023-03-17T07:16:25.459Z,5.60
2023-03-17T07:18:52.215Z,5.30
2023-03-17T07:21:21.829Z,6.60
2023-03-17T07:23:48.502Z,5.40
2023-03-17T07:26:19.577Z,5.50
2023-03-17T07:28:46.694Z,5.60
2023-03-17T07:31:14.509Z,6.30
2023-03-17T07:33:42.057Z,5.80
2023-03-17T07:36:15.758Z,5.90
2023-03-17T07:38:43.214Z,5.90
2023-03-17T07:41:12.103Z,6.00
2023-03-17T07:43:38.809Z,6.10
2023-03-17T07:46:06.499Z,6.20
2023-03-17T07:48:37.938Z,6.30
2023-03-17T07:51:07.322Z,6.50
2023-03-17T07:53:36.551Z,6.50
2023-03-17T07:56:03.451Z,6.70
2023-03-17T07:58:32.657Z,6.80
2023-03-17T08:00:59.405Z,7.00
2023-03-17T08:03:26.056Z,7.30
2023-03-17T08:05:55.807Z,7.30
2023-03-17T08:08:28.205Z,7.50
2023-03-17T08:11:03.710Z,7.70
2023-03-17T08:13:35.941Z,7.90
2023-03-17T08:16:08.114Z,8.00
2023-03-17T08:18:35.281Z,8.20
2023-03-17T08:21:02.233Z,8.30
2023-03-17T08:23:28.985Z,8.50
2023-03-17T08:26:05.924Z,8.50
2023-03-17T08:28:32.885Z,8.80
2023-03-17T08:31:12.643Z,8.90
2023-03-17T08:33:42.168Z,9.90
2023-03-17T08:36:10.032Z,9.50
2023-03-17T08:38:38.528Z,9.80
2023-03-17T08:41:10.123Z,10.10
2023-03-17T08:43:38.185Z,10.40
2023-03-17T08:46:21.904Z,11.20
2023-03-17T08:48:52.229Z,11.20
2023-03-17T08:51:24.354Z,11.50
2023-03-17T08:53:51.924Z,12.00
2023-03-17T08:56:18.989Z,12.00
2023-03-17T08:58:51.389Z,12.10
2023-03-17T09:01:19.276Z,12.30
2023-03-17T09:03:46.760Z,12.40
2023-03-17T09:06:16.407Z,12.30
2023-03-17T09:08:50.831Z,12.70
2023-03-17T09:11:23.419Z,12.90
2023-03-17T09:13:52.434Z,13.80
2023-03-17T09:16:19.429Z,13.20
2023-03-17T09:18:46.604Z,13.50
2023-03-17T09:21:18.224Z,13.90
2023-03-17T09:23:45.080Z,14.10
2023-03-17T09:26:12.664Z,14.50
2023-03-17T09:28:42.595Z,14.70
2023-03-17T09:31:12.504Z,14.90
2023-03-17T09:33:40.687Z,15.10
2023-03-17T09:36:12.139Z,15.30
2023-03-17T09:38:39.464Z,15.50
2023-03-17T09:41:23.738Z,15.70
2023-03-17T09:44:06.673Z,15.90
2023-03-17T09:47:02.569Z,16.10
2023-03-17T09:52:11.236Z,16.80
2023-03-17T09:54:39.055Z,16.80
2023-03-17T09:57:38.066Z,17.10
2023-03-17T10:00:20.737Z,17.10
2023-03-17T10:02:47.511Z,17.10
2023-03-17T10:05:17.180Z,17.20
2023-03-17T10:08:26.857Z,17.20
2023-03-17T10:11:19.571Z,17.30
2023-03-17T10:14:10.121Z,17.30
2023-03-17T10:16:50.869Z,17.40
2023-03-17T10:19:28.145Z,17.50
2023-03-17T10:22:04.188Z,17.40
2023-03-17T10:24:33.937Z,17.60
2023-03-17T10:27:06.560Z,17.80
2023-03-17T10:29:33.552Z,18.00
2023-03-17T10:32:08.313Z,18.30
2023-03-17T10:34:38.008Z,18.40
2023-03-17T10:37:15.037Z,18.80
2023-03-17T10:39:51.130Z,18.40
2023-03-17T10:42:23.769Z,18.30
2023-03-17T10:45:01.856Z,18.20
2023-03-17T10:47:34.579Z,18.10
2023-03-17T10:50:21.344Z,18.20
2023-03-17T10:52:57.867Z,18.30
2023-03-17T10:55:31.376Z,18.40
2023-03-17T10:58:07.872Z,18.90
2023-03-17T11:00:38.406Z,18.90
2023-03-17T11:03:16.810Z,19.10
2023-03-17T11:06:11.529Z,19.30
2023-03-17T11:08:53.692Z,19.50
2023-03-17T11:11:35.453Z,19.70
2023-03-17T11:14:16.305Z,19.80
2023-03-17T11:16:53.777Z,19.90
2023-03-17T11:19:31.757Z,20.10
2023-03-17T11:22:26.241Z,20.20
2023-03-17T11:25:05.051Z,20.50
2023-03-17T11:27:38.844Z,20.60
2023-03-17T11:30:47.348Z,20.80
2023-03-17T11:33:29.896Z,21.20
2023-03-17T11:36:24.766Z,21.20
2023-03-17T11:39:17.238Z,21.30
2023-03-17T11:41:56.109Z,21.40
2023-03-17T11:44:47.439Z,21.50
2023-03-17T11:47:20.449Z,21.50
2023-03-17T11:50:04.342Z,21.50
2023-03-17T11:52:38.706Z,21.50
2023-03-17T11:55:19.940Z,21.60
2023-03-17T11:57:48.645Z,21.60
2023-03-17T12:00:31.782Z,21.70
2023-03-17T12:03:04.474Z,21.70
2023-03-17T12:05:33.576Z,21.80
2023-03-17T12:08:12.540Z,21.80
2023-03-17T12:10:52.596Z,22.00
2023-03-17T12:13:39.853Z,22.10
2023-03-17T12:16:25.594Z,22.10
2023-03-17T12:19:02.209Z,22.20
2023-03-17T12:21:38.777Z,22.20
2023-03-17T12:24:23.922Z,22.10
2023-03-17T12:27:13.731Z,22.10
2023-03-17T12:32:21.633Z,22.10
2023-03-17T12:35:26.413Z,22.00
2023-03-17T12:37:54.156Z,22.10
2023-03-17T12:40:47.385Z,22.10
2023-03-17T12:43:29.000Z,22.10
2023-03-17T12:46:11.575Z,22.10
2023-03-17T12:49:09.469Z,22.00
2023-03-17T12:51:58.447Z,21.90
2023-03-17T12:54:31.878Z,21.80
2023-03-17T12:57:38.275Z,21.80
2023-03-17T13:00:19.471Z,21.90
2023-03-17T13:02:53.745Z,21.90
2023-03-17T13:05:32.769Z,22.00
2023-03-17T13:08:02.650Z,22.00
2023-03-17T13:10:44.918Z,22.00
2023-03-17T13:13:11.570Z,22.00
2023-03-17T13:15:39.590Z,22.00
2023-03-17T13:18:12.264Z,22.00
2023-03-17T13:20:43.930Z,22.00
2023-03-17T13:23:10.681Z,22.00
2023-03-17T13:25:41.553Z,21.90
2023-03-17T13:28:14.857Z,22.00
2023-03-17T13:30:59.295Z,22.10
2023-03-17T13:33:34.609Z,22.10
2023-03-17T13:36:22.714Z,22.10
2023-03-17T13:39:20.528Z,22.10
2023-03-17T13:41:51.712Z,22.20
2023-03-17T13:44:36.718Z,22.10
2023-03-17T13:47:32.566Z,22.20
2023-03-17T13:50:12.557Z,22.30
2023-03-17T13:52:46.673Z,22.30
2023-03-17T13:55:35.031Z,22.30
2023-03-17T13:58:11.901Z,22.30
2023-03-17T14:00:41.643Z,22.30
2023-03-17T14:03:27.421Z,22.40
2023-03-17T14:05:55.239Z,22.40
2023-03-17T14:08:35.572Z,22.50
2023-03-17T14:11:06.691Z,22.40
2023-03-17T14:14:07.653Z,22.40
2023-03-17T14:16:44.086Z,22.40
2023-03-17T14:19:19.726Z,22.20
2023-03-17T14:21:46.613Z,22.20
2023-03-17T14:24:25.642Z,22.20
2023-03-17T14:26:55.354Z,22.20
2023-03-17T14:29:29.501Z,22.20
2023-03-17T14:32:11.824Z,22.20
2023-03-17T14:35:01.165Z,22.20
2023-03-17T14:37:28.378Z,22.20
2023-03-17T14:39:57.631Z,22.20
2023-03-17T14:42:33.857Z,22.30
2023-03-17T14:45:18.577Z,22.20
2023-03-17T14:47:45.464Z,22.20
2023-03-17T14:50:30.823Z,22.20
2023-03-17T14:53:01.449Z,22.10
2023-03-17T14:55:43.103Z,22.00
2023-03-17T14:58:30.451Z,21.90
2023-03-17T15:01:14.701Z,21.90
2023-03-17T15:03:58.389Z,21.80
2023-03-17T15:06:26.765Z,21.80
2023-03-17T15:08:54.344Z,21.70
2023-03-17T15:11:24.862Z,21.70
2023-03-17T15:14:03.518Z,21.70
2023-03-17T15:16:37.255Z,21.60
2023-03-17T15:19:22.645Z,21.50
2023-03-17T15:21:52.054Z,21.50
2023-03-17T15:24:31.706Z,21.40
2023-03-17T15:27:03.020Z,21.10
2023-03-17T15:29:30.080Z,21.10
2023-03-17T15:32:10.798Z,21.10
2023-03-17T15:37:12.861Z,20.90
2023-03-17T15:39:39.499Z,20.80
2023-03-17T15:42:06.590Z,20.70
2023-03-17T15:44:33.441Z,20.70
2023-03-17T15:47:00.262Z,20.70
2023-03-17T15:49:27.125Z,20.60
2023-03-17T15:51:55.956Z,20.50
2023-03-17T15:54:22.592Z,20.50
2023-03-17T15:56:49.317Z,20.40
2023-03-17T15:59:16.161Z,20.40
2023-03-17T16:01:42.946Z,20.30
2023-03-17T16:04:10.692Z,20.20
2023-03-17T16:06:39.925Z,20.30
2023-03-17T16:09:16.601Z,20.20
2023-03-17T16:11:43.665Z,20.10
2023-03-17T16:14:13.744Z,20.00
2023-03-17T16:16:45.789Z,20.00
2023-03-17T16:19:22.816Z,19.90
2023-03-17T16:21:49.515Z,19.90
2023-03-17T16:24:24.465Z,19.80
2023-03-17T16:26:51.661Z,19.50
2023-03-17T16:29:20.394Z,19.50
2023-03-17T16:31:50.880Z,19.40
2023-03-17T16:34:20.833Z,19.30
2023-03-17T16:36:48.501Z,19.10
2023-03-17T16:39:22.818Z,19.00
2023-03-17T16:41:50.623Z,19.00
2023-03-17T16:44:20.379Z,18.80
2023-03-17T16:46:48.867Z,18.80
2023-03-17T16:49:20.367Z,18.70
2023-03-17T16:51:48.762Z,18.60
2023-03-17T16:54:16.164Z,18.50
2023-03-17T16:56:42.978Z,18.40
2023-03-17T16:59:21.569Z,18.20
2023-03-17T17:01:50.466Z,17.90
2023-03-17T17:04:17.233Z,17.80
2023-03-17T17:06:43.957Z,17.60
2023-03-17T17:09:10.667Z,17.50
2023-03-17T17:11:39.717Z,17.40
2023-03-17T17:16:36.358Z,17.20
2023-03-17T17:19:04.260Z,17.10
2023-03-17T17:21:31.937Z,16.90
2023-03-17T17:23:58.690Z,16.80
2023-03-17T17:26:27.812Z,16.70
2023-03-17T17:28:54.506Z,16.80
2023-03-17T17:31:25.947Z,16.60
2023-03-17T17:33:55.165Z,16.50
2023-03-17T17:36:22.093Z,16.30
2023-03-17T17:38:48.850Z,16.20
2023-03-17T17:41:17.001Z,16.20
2023-03-17T17:43:44.007Z,16.00
2023-03-17T17:46:14.677Z,15.80
2023-03-17T17:48:45.976Z,15.90
2023-03-17T17:53:40.320Z,15.70
2023-03-17T17:56:07.473Z,15.60
2023-03-17T17:58:34.206Z,15.60
2023-03-17T18:03:32.061Z,15.30
2023-03-17T18:05:59.132Z,15.20
2023-03-17T18:08:28.148Z,15.10
2023-03-17T18:10:57.432Z,15.00
2023-03-17T18:13:26.824Z,15.10
2023-03-17T18:15:53.479Z,14.90
2023-03-17T18:18:22.576Z,14.90
2023-03-17T18:20:49.423Z,14.80
2023-03-17T18:23:20.108Z,14.70
2023-03-17T18:25:47.084Z,14.50
2023-03-17T18:28:13.775Z,14.60
2023-03-17T18:30:40.629Z,14.50
2023-03-17T18:33:17.482Z,14.40
2023-03-17T18:35:50.114Z,14.40
2023-03-17T18:38:17.045Z,14.40
2023-03-17T18:40:46.253Z,14.30
2023-03-17T18:43:13.005Z,14.70
2023-03-17T18:45:39.719Z,14.10
2023-03-17T18:48:06.803Z,14.10
2023-03-17T18:50:36.984Z,14.00
2023-03-17T18:53:03.955Z,14.00
2023-03-17T18:55:30.610Z,14.10
2023-03-17T18:57:59.792Z,14.00
2023-03-17T19:00:29.643Z,13.90
2023-03-17T19:02:56.645Z,13.90
2023-03-17T19:07:51.171Z,14.00
2023-03-17T19:10:18.000Z,13.70
2023-03-17T19:12:46.324Z,13.60
2023-03-17T19:15:14.504Z,13.50
2023-03-17T19:17:41.836Z,13.50
2023-03-17T19:20:10.018Z,13.20
2023-03-17T19:25:04.315Z,13.40
2023-03-17T19:27:31.127Z,13.30
2023-03-17T19:29:57.935Z,13.20
2023-03-17T19:32:29.341Z,13.00
2023-03-17T19:34:56.061Z,13.10
2023-03-17T19:37:22.798Z,13.00
2023-03-17T19:39:49.489Z,13.00
2023-03-17T19:42:18.626Z,12.90
2023-03-17T19:44:45.528Z,12.90
2023-03-17T19:49:39.299Z,12.80
2023-03-17T19:52:07.531Z,12.80
2023-03-17T20:01:58.610Z,12.70
2023-03-17T20:04:27.822Z,12.60
2023-03-17T20:06:57.892Z,12.60
2023-03-17T20:09:26.114Z,12.50
2023-03-17T20:11:56.509Z,12.50
2023-03-17T20:14:26.209Z,12.50
2023-03-17T20:16:53.652Z,12.60
2023-03-17T20:19:21.028Z,12.70
2023-03-17T20:24:17.608Z,12.70
2023-03-17T20:26:49.817Z,12.60
2023-03-17T20:29:17.556Z,12.60
2023-03-17T20:34:13.766Z,12.40
2023-03-17T20:36:42.361Z,12.40
2023-03-17T20:39:14.883Z,12.40
2023-03-17T20:41:41.620Z,12.30
2023-03-17T20:44:08.342Z,12.30
2023-03-17T20:46:35.293Z,12.30
2023-03-17T20:49:02.163Z,12.20
2023-03-17T20:51:28.925Z,12.20
2023-03-17T20:54:00.969Z,12.20
2023-03-17T20:56:34.054Z,12.20
2023-03-17T20:59:04.921Z,12.20
2023-03-17T21:01:37.150Z,12.20
2023-03-17T21:04:09.840Z,12.10
2023-03-17T21:06:38.515Z,12.10
2023-03-17T21:09:05.945Z,12.10
2023-03-17T21:13:59.869Z,12.00
2023-03-17T21:16:30.917Z,12.00
2023-03-17T21:19:00.697Z,12.00
2023-03-17T21:21:30.582Z,12.00
2023-03-17T21:23:57.876Z,12.00
2023-03-17T21:31:19.425Z,12.00
2023-03-17T21:33:50.353Z,11.90
2023-03-17T21:36:17.627Z,11.90
2023-03-17T21:41:39.386Z,11.80
2023-03-17T21:44:08.646Z,11.90
2023-03-17T21:46:35.544Z,11.80
2023-03-17T21:49:05.295Z,11.80
2023-03-17T21:51:32.733Z,11.80
2023-03-17T21:58:57.330Z,11.80
2023-03-17T22:03:54.667Z,11.70
2023-03-17T22:06:21.781Z,11.70
2023-03-17T22:08:50.464Z,11.60
2023-03-17T22:11:20.904Z,11.60
2023-03-17T22:13:51.370Z,11.60
2023-03-17T22:16:21.603Z,11.60
2023-03-17T22:18:50.609Z,11.50
2023-03-17T22:23:50.933Z,11.40
2023-03-17T22:26:19.881Z,11.40
2023-03-17T22:28:47.966Z,11.40
2023-03-17T22:31:21.599Z,11.40
2023-03-17T22:33:50.814Z,11.40
2023-03-17T22:38:46.182Z,11.30
2023-03-17T22:41:23.551Z,11.30
2023-03-17T22:43:55.684Z,11.20
2023-03-17T22:46:22.563Z,11.20
2023-03-17T22:48:49.835Z,11.10
2023-03-17T22:51:20.754Z,11.20
2023-03-17T22:53:50.888Z,11.10
2023-03-17T22:56:20.654Z,11.20
2023-03-17T22:58:47.984Z,11.00
2023-03-17T23:01:22.259Z,11.00
2023-03-17T23:03:49.715Z,11.00
2023-03-17T23:06:19.522Z,11.00
2023-03-17T23:11:23.088Z,10.90
2023-03-17T23:13:51.329Z,10.90
2023-03-17T23:16:18.874Z,10.90
2023-03-17T23:18:47.003Z,10.90
2023-03-17T23:21:26.325Z,10.90
2023-03-17T23:23:53.265Z,11.50
2023-03-17T23:26:20.002Z,10.80
2023-03-17T23:28:47.567Z,10.70
2023-03-17T23:31:19.124Z,10.70
2023-03-17T23:33:52.640Z,10.70
2023-03-17T23:36:21.800Z,10.70
2023-03-17T23:38:52.220Z,10.70
2023-03-17T23:41:19.128Z,10.70
2023-03-17T23:43:46.717Z,10.50
2023-03-17T23:48:43.242Z,10.50
2023-03-17T23:51:15.093Z,10.60
2023-03-17T23:56:13.096Z,10.40
2023-03-17T23:58:42.430Z,10.40
